Schoonebeek, Netherlands
Current Conditions -  °F | °C
As of 3:25 PM on Tuesday 21 Oct 2014 (Local Time) from EHGG Reporting Station
Rain Showers Rain Showers  
Wind Chill: 13°   Ceiling: 1100
Heat Index: 13°   Visibility: 6mi
Dew Point: 12°   Wind: 18mph
Humidity: 94%   Direction: 200°SSW
Pressure: 29.32"   Gusts: NA
Location:  52.66°N, 6.88°E
Report Text: EHGG 211325Z AUTO 20016KT 150V240 9999 -SHRA FEW009 BKN011BKN014 SCT015CB 13/12 Q0993 REDZ TEMPO 30032G44KT 3000 SHRA TSRASCT025CB
Loading
Personal Weather Stations






























Interactive Weather Map
Tropical Storm Tracking
New forecast layout! Learn more

10-Day Weather Forecast

Advertisements
Track Severe Weather on mobile